createdAt,value
2023-04-30T00:01:53.731Z,7.30
2023-04-30T00:04:21.737Z,7.67
2023-04-30T00:06:49.677Z,8.00
2023-04-30T00:09:17.583Z,8.53
2023-04-30T00:11:46.810Z,8.70
2023-04-30T00:14:14.672Z,8.70
2023-04-30T00:16:42.647Z,8.60
2023-04-30T00:19:10.680Z,9.23
2023-04-30T00:21:38.765Z,9.30
2023-04-30T00:24:07.053Z,8.90
2023-04-30T00:26:34.904Z,8.17
2023-04-30T00:29:04.594Z,8.97
2023-04-30T00:31:32.634Z,8.33
2023-04-30T00:34:00.494Z,8.60
2023-04-30T00:36:28.378Z,9.03
2023-04-30T00:38:56.545Z,8.80
2023-04-30T00:41:25.542Z,9.37
2023-04-30T00:43:53.398Z,9.90
2023-04-30T00:46:22.953Z,9.77
2023-04-30T00:48:51.334Z,9.33
2023-04-30T00:51:19.423Z,9.70
2023-04-30T00:53:47.732Z,10.10
2023-04-30T00:56:17.225Z,9.23
2023-04-30T00:58:45.327Z,8.57
2023-04-30T01:01:13.541Z,8.70
2023-04-30T01:03:44.644Z,8.70
2023-04-30T01:06:12.681Z,9.13
2023-04-30T01:08:40.702Z,9.33
2023-04-30T01:11:27.460Z,9.13
2023-04-30T01:14:03.860Z,8.87
2023-04-30T01:16:37.023Z,10.13
2023-04-30T01:19:21.575Z,10.47
2023-04-30T01:21:50.253Z,10.27
2023-04-30T01:24:39.227Z,10.03
2023-04-30T01:27:24.883Z,9.03
2023-04-30T01:29:56.292Z,9.10
2023-04-30T01:32:25.389Z,9.73
2023-04-30T01:34:53.312Z,8.83
2023-04-30T01:37:28.642Z,9.53
2023-04-30T01:40:16.674Z,9.87
2023-04-30T01:42:54.093Z,11.07
2023-04-30T01:45:36.952Z,11.37
2023-04-30T01:48:13.960Z,10.33
2023-04-30T01:50:49.520Z,10.73
2023-04-30T01:53:21.974Z,10.10
2023-04-30T01:55:56.579Z,10.37
2023-04-30T01:58:25.957Z,10.20
2023-04-30T02:00:56.176Z,10.00
2023-04-30T02:03:24.136Z,9.97
2023-04-30T02:05:52.106Z,9.70
2023-04-30T02:08:20.077Z,11.00
2023-04-30T02:10:48.054Z,10.37
2023-04-30T02:13:16.233Z,10.10
2023-04-30T02:15:44.270Z,9.33
2023-04-30T02:18:13.573Z,9.97
2023-04-30T02:20:41.658Z,9.87
2023-04-30T02:23:10.141Z,10.43
2023-04-30T02:25:39.108Z,10.70
2023-04-30T02:28:07.597Z,11.23
2023-04-30T02:30:36.220Z,12.40
2023-04-30T02:33:05.265Z,13.20
2023-04-30T02:35:34.649Z,11.47
2023-04-30T02:38:02.551Z,12.03
2023-04-30T02:40:30.433Z,12.43
2023-04-30T02:42:59.018Z,12.10
2023-04-30T02:45:27.023Z,13.93
2023-04-30T02:47:55.039Z,13.57
2023-04-30T02:50:22.988Z,13.20
2023-04-30T02:52:52.241Z,13.00
2023-04-30T02:55:20.187Z,12.43
2023-04-30T02:57:48.208Z,13.07
2023-04-30T03:00:17.449Z,13.60
2023-04-30T03:02:45.582Z,12.97
2023-04-30T03:05:15.858Z,12.97
2023-04-30T03:07:43.803Z,12.73
2023-04-30T03:10:13.178Z,13.70
2023-04-30T03:12:41.078Z,13.63
2023-04-30T03:15:10.075Z,12.33
2023-04-30T03:17:38.052Z,11.93
2023-04-30T03:20:07.251Z,12.50
2023-04-30T03:22:35.181Z,11.50
2023-04-30T03:25:03.520Z,11.83
2023-04-30T03:27:32.761Z,11.97
2023-04-30T03:30:00.600Z,10.93
2023-04-30T03:32:28.493Z,11.30
2023-04-30T03:34:56.509Z,11.07
2023-04-30T03:37:25.475Z,12.17
2023-04-30T03:39:53.662Z,10.63
2023-04-30T03:42:21.645Z,11.47
2023-04-30T03:44:50.863Z,12.90
2023-04-30T03:47:18.847Z,12.60
2023-04-30T03:49:48.967Z,11.97
2023-04-30T03:52:16.931Z,12.83
2023-04-30T03:54:45.053Z,12.60
2023-04-30T03:57:14.025Z,12.80
2023-04-30T03:59:42.615Z,12.23
2023-04-30T04:02:13.160Z,12.63
2023-04-30T04:04:41.493Z,14.03
2023-04-30T04:07:11.464Z,14.07
2023-04-30T04:09:39.479Z,13.03
2023-04-30T04:12:07.706Z,14.10
2023-04-30T04:14:36.532Z,12.60
2023-04-30T04:17:05.728Z,14.27
2023-04-30T04:19:35.514Z,12.43
2023-04-30T04:22:03.416Z,12.30
2023-04-30T04:24:31.804Z,12.07
2023-04-30T04:26:59.770Z,12.57
2023-04-30T04:29:27.686Z,13.33
2023-04-30T04:31:55.753Z,13.73
2023-04-30T04:34:23.901Z,11.53
2023-04-30T04:36:53.370Z,13.00
2023-04-30T04:39:21.276Z,10.67
2023-04-30T04:41:49.385Z,14.07
2023-04-30T04:44:17.307Z,11.70
2023-04-30T04:46:45.803Z,11.53
2023-04-30T04:49:13.785Z,11.47
2023-04-30T04:51:41.761Z,12.43
2023-04-30T04:54:11.489Z,11.77
2023-04-30T04:56:40.816Z,11.27
2023-04-30T04:59:08.770Z,11.70
2023-04-30T05:01:37.143Z,12.50
2023-04-30T05:04:05.351Z,11.43
2023-04-30T05:06:33.523Z,13.33
2023-04-30T05:09:01.546Z,12.83
2023-04-30T05:11:31.153Z,12.73
2023-04-30T05:13:59.215Z,12.77
2023-04-30T05:16:27.534Z,14.47
2023-04-30T05:18:55.464Z,14.83
2023-04-30T05:21:23.354Z,14.30
2023-04-30T05:23:51.222Z,14.03
2023-04-30T05:26:19.225Z,13.90
2023-04-30T05:28:48.430Z,14.33
2023-04-30T05:31:17.209Z,14.63
2023-04-30T05:33:46.101Z,15.07
2023-04-30T05:36:14.663Z,13.27
2023-04-30T05:38:42.766Z,12.97
2023-04-30T05:41:14.145Z,13.00
2023-04-30T05:43:42.114Z,12.27
2023-04-30T05:46:11.323Z,12.70
2023-04-30T05:48:39.967Z,12.27
2023-04-30T05:51:07.880Z,12.73
2023-04-30T05:53:35.917Z,12.17
2023-04-30T05:56:04.396Z,12.03
2023-04-30T05:58:32.771Z,12.23
2023-04-30T06:01:00.762Z,10.90
2023-04-30T06:03:30.191Z,11.60
2023-04-30T06:05:58.460Z,11.27
2023-04-30T06:08:26.450Z,11.37
2023-04-30T06:10:54.470Z,11.60
2023-04-30T06:13:22.423Z,11.60
2023-04-30T06:15:50.613Z,13.00
2023-04-30T06:18:18.599Z,12.20
2023-04-30T06:20:47.980Z,12.90
2023-04-30T06:23:16.031Z,11.97
2023-04-30T06:25:43.996Z,10.53
2023-04-30T06:28:12.270Z,11.57
2023-04-30T06:30:40.151Z,11.00
2023-04-30T06:33:08.138Z,10.90
2023-04-30T06:35:36.236Z,11.27
2023-04-30T06:38:05.533Z,10.70
2023-04-30T06:40:35.943Z,10.63
2023-04-30T06:43:04.429Z,10.67
2023-04-30T06:45:32.374Z,10.43
2023-04-30T06:48:00.621Z,10.55
2023-04-30T06:50:28.731Z,10.30
2023-04-30T06:52:56.615Z,11.38
2023-04-30T06:55:28.062Z,10.50
2023-04-30T06:57:57.793Z,10.55
2023-04-30T07:00:26.518Z,9.88
2023-04-30T07:02:54.499Z,10.35
2023-04-30T07:05:22.463Z,9.85
2023-04-30T07:07:50.607Z,11.02
2023-04-30T07:10:18.673Z,10.55
2023-04-30T07:12:47.926Z,9.52
2023-04-30T07:15:16.041Z,9.90
2023-04-30T07:17:44.123Z,9.63
2023-04-30T07:20:14.718Z,9.70
2023-04-30T07:22:44.495Z,10.05
2023-04-30T07:25:12.701Z,10.10
2023-04-30T07:27:44.106Z,10.07
2023-04-30T07:30:13.941Z,9.32
2023-04-30T07:32:42.762Z,10.25
2023-04-30T07:35:11.122Z,8.70
2023-04-30T07:37:41.101Z,9.20
2023-04-30T07:40:15.173Z,8.60
2023-04-30T07:42:45.832Z,8.13
2023-04-30T07:45:15.253Z,7.47
2023-04-30T07:47:43.324Z,7.65
2023-04-30T07:50:12.417Z,8.02
2023-04-30T07:52:40.382Z,8.00
2023-04-30T07:55:09.158Z,8.35
2023-04-30T07:57:36.992Z,7.07
2023-04-30T08:00:05.576Z,7.43
2023-04-30T08:02:44.078Z,8.23
2023-04-30T08:05:12.715Z,7.90
2023-04-30T08:07:41.671Z,7.88
2023-04-30T08:10:10.193Z,7.28
2023-04-30T08:12:38.297Z,6.32
2023-04-30T08:15:07.925Z,8.40
2023-04-30T08:17:36.850Z,7.38
2023-04-30T08:20:07.918Z,8.15
2023-04-30T08:22:36.408Z,7.75
2023-04-30T08:25:04.360Z,8.60
2023-04-30T08:27:32.456Z,9.02
2023-04-30T08:30:00.596Z,9.23
2023-04-30T08:32:29.181Z,8.65
2023-04-30T08:34:57.325Z,8.20
2023-04-30T08:37:26.686Z,8.07
2023-04-30T08:39:55.009Z,8.25
2023-04-30T08:42:26.809Z,7.95
2023-04-30T08:44:54.720Z,7.93
2023-04-30T08:47:25.316Z,7.00
2023-04-30T08:49:53.540Z,7.15
2023-04-30T08:52:22.950Z,6.97
2023-04-30T08:54:54.201Z,6.97
2023-04-30T08:57:22.205Z,7.63
2023-04-30T08:59:50.113Z,7.15
2023-04-30T09:02:18.026Z,6.05
2023-04-30T09:04:46.819Z,6.88
2023-04-30T09:07:14.879Z,7.28
2023-04-30T09:09:42.810Z,5.95
2023-04-30T09:12:18.797Z,6.88
2023-04-30T09:15:01.583Z,6.55
2023-04-30T09:17:29.616Z,6.30
2023-04-30T09:20:08.161Z,6.18
2023-04-30T09:22:37.424Z,6.07
2023-04-30T09:25:06.236Z,5.95
2023-04-30T09:27:35.843Z,5.88
2023-04-30T09:30:04.772Z,5.93
2023-04-30T09:32:32.893Z,5.60
2023-04-30T09:35:00.804Z,4.80
2023-04-30T09:37:37.391Z,5.75
2023-04-30T09:40:06.161Z,5.03
2023-04-30T09:42:35.599Z,5.00
2023-04-30T09:45:06.593Z,5.43
2023-04-30T09:47:35.055Z,4.68
2023-04-30T09:50:02.989Z,4.20
2023-04-30T09:52:31.857Z,4.80
2023-04-30T09:54:59.942Z,4.10
2023-04-30T09:57:31.751Z,4.68
2023-04-30T10:00:01.924Z,4.60
2023-04-30T10:02:38.594Z,3.90
2023-04-30T10:05:07.911Z,3.40
2023-04-30T10:07:40.438Z,3.10
2023-04-30T10:10:10.451Z,4.00
2023-04-30T10:12:44.326Z,3.22
2023-04-30T10:15:17.708Z,3.15
2023-04-30T10:17:49.838Z,2.47
2023-04-30T10:20:20.174Z,4.22
2023-04-30T10:22:49.394Z,4.20
2023-04-30T10:25:20.550Z,4.50
2023-04-30T10:27:48.539Z,4.07
2023-04-30T10:30:18.526Z,3.83
2023-04-30T10:32:59.943Z,3.53
2023-04-30T10:35:31.642Z,3.72
2023-04-30T10:38:08.883Z,3.67
2023-04-30T10:40:38.452Z,3.45
2023-04-30T10:43:06.435Z,4.50
2023-04-30T10:45:43.664Z,4.40
2023-04-30T10:48:11.949Z,3.60
2023-04-30T10:50:45.586Z,3.40
2023-04-30T10:53:16.887Z,4.45
2023-04-30T10:55:53.089Z,4.70
2023-04-30T10:58:29.092Z,5.05
2023-04-30T11:01:06.042Z,4.35
2023-04-30T11:03:36.406Z,3.42
2023-04-30T11:06:09.919Z,4.30
2023-04-30T11:08:38.770Z,3.70
2023-04-30T11:11:09.726Z,4.60
2023-04-30T11:13:42.224Z,4.18
2023-04-30T11:16:11.916Z,4.57
2023-04-30T11:18:45.068Z,4.68
2023-04-30T11:21:13.157Z,4.32
2023-04-30T11:23:43.192Z,4.30
2023-04-30T11:26:11.847Z,4.25
2023-04-30T11:28:39.784Z,4.57
2023-04-30T11:31:08.024Z,4.30
2023-04-30T11:33:37.492Z,3.67
2023-04-30T11:36:06.037Z,4.10
2023-04-30T11:38:36.663Z,4.10
2023-04-30T11:41:05.893Z,4.15
2023-04-30T11:43:34.885Z,3.47
2023-04-30T11:46:12.117Z,3.15
2023-04-30T11:48:43.252Z,3.95
2023-04-30T11:51:18.968Z,3.00
2023-04-30T11:53:48.690Z,3.08
2023-04-30T11:56:20.550Z,3.70
2023-04-30T11:58:49.434Z,3.60
2023-04-30T12:01:18.518Z,3.13
2023-04-30T12:03:50.284Z,3.30
2023-04-30T12:06:23.685Z,3.40
2023-04-30T12:08:54.302Z,3.28
2023-04-30T12:11:25.321Z,3.05
2023-04-30T12:13:54.662Z,3.30
2023-04-30T12:16:22.756Z,3.42
2023-04-30T12:18:53.138Z,3.17
2023-04-30T12:21:23.895Z,2.78
2023-04-30T12:23:51.909Z,2.90
2023-04-30T12:26:19.774Z,3.08
2023-04-30T12:28:49.756Z,2.83
2023-04-30T12:31:19.180Z,2.83
2023-04-30T12:33:56.493Z,2.55
2023-04-30T12:36:32.304Z,2.05
2023-04-30T12:39:10.861Z,2.00
2023-04-30T12:41:42.405Z,2.55
2023-04-30T12:44:21.313Z,2.53
2023-04-30T12:46:50.441Z,2.72
2023-04-30T12:49:27.628Z,2.70
2023-04-30T12:52:01.392Z,2.72
2023-04-30T12:54:30.294Z,3.05
2023-04-30T12:57:01.250Z,3.72
2023-04-30T12:59:29.487Z,3.10
2023-04-30T13:02:06.301Z,2.95
2023-04-30T13:04:35.973Z,2.88
2023-04-30T13:07:04.781Z,3.33
2023-04-30T13:09:34.392Z,3.17
2023-04-30T13:12:02.421Z,2.55
2023-04-30T13:14:30.393Z,1.85
2023-04-30T13:16:58.370Z,1.85
2023-04-30T13:19:26.953Z,2.45
2023-04-30T13:21:56.484Z,2.50
2023-04-30T13:24:24.653Z,2.80
2023-04-30T13:26:52.564Z,2.30
2023-04-30T13:29:21.164Z,2.30
2023-04-30T13:31:49.965Z,2.10
2023-04-30T13:34:17.896Z,2.30
2023-04-30T13:36:46.869Z,2.75
2023-04-30T13:39:16.635Z,2.33
2023-04-30T13:41:45.019Z,2.60
2023-04-30T13:44:12.922Z,1.85
2023-04-30T13:46:40.903Z,1.92
2023-04-30T13:49:08.880Z,1.48
2023-04-30T13:51:36.748Z,1.70
2023-04-30T13:54:04.692Z,1.73
2023-04-30T13:56:34.020Z,1.95
2023-04-30T13:59:03.041Z,1.73
2023-04-30T14:01:32.873Z,1.88
2023-04-30T14:04:02.034Z,1.80
2023-04-30T14:06:30.567Z,1.60
2023-04-30T14:08:58.731Z,1.48
2023-04-30T14:11:27.770Z,2.05
2023-04-30T14:13:57.123Z,1.48
2023-04-30T14:16:25.070Z,1.35
2023-04-30T14:18:53.020Z,1.50
2023-04-30T14:21:20.969Z,1.63
2023-04-30T14:23:48.840Z,1.73
2023-04-30T14:26:16.810Z,1.80
2023-04-30T14:28:44.769Z,1.25
2023-04-30T14:31:14.093Z,1.63
2023-04-30T14:33:41.982Z,1.30
2023-04-30T14:36:09.899Z,1.60
2023-04-30T14:38:37.758Z,1.40
2023-04-30T14:41:05.803Z,1.70
2023-04-30T14:43:33.756Z,1.25
2023-04-30T14:46:01.728Z,1.70
2023-04-30T14:48:30.973Z,1.33
2023-04-30T14:50:58.874Z,1.40
2023-04-30T14:53:26.725Z,2.38
2023-04-30T14:55:54.675Z,1.60
2023-04-30T14:58:22.644Z,1.52
2023-04-30T15:00:51.264Z,1.40
2023-04-30T15:03:19.317Z,1.58
2023-04-30T15:05:49.944Z,1.20
2023-04-30T15:08:17.825Z,1.20
2023-04-30T15:10:45.972Z,1.42
2023-04-30T15:13:14.277Z,1.30
2023-04-30T15:15:43.107Z,1.17
2023-04-30T15:18:11.246Z,1.02
2023-04-30T15:20:39.132Z,1.20
2023-04-30T15:23:08.388Z,1.45
2023-04-30T15:25:36.382Z,1.13
2023-04-30T15:28:04.538Z,1.10
2023-04-30T15:30:32.562Z,0.93
2023-04-30T15:33:00.387Z,1.58
2023-04-30T15:35:28.628Z,1.20
2023-04-30T15:37:56.626Z,1.13
2023-04-30T15:40:25.978Z,1.33
2023-04-30T15:42:53.875Z,0.80
2023-04-30T15:45:21.739Z,1.02
2023-04-30T15:47:49.687Z,1.15
2023-04-30T15:50:17.909Z,0.90
2023-04-30T15:52:45.993Z,1.05
2023-04-30T15:55:14.355Z,1.13
2023-04-30T15:57:43.693Z,1.13
2023-04-30T16:00:14.578Z,1.27
2023-04-30T16:02:42.905Z,0.90
2023-04-30T16:05:11.760Z,0.90
2023-04-30T16:07:41.362Z,1.00
2023-04-30T16:10:11.967Z,0.95
2023-04-30T16:12:39.866Z,1.10
2023-04-30T16:15:11.151Z,0.70
2023-04-30T16:17:39.192Z,1.10
2023-04-30T16:20:08.564Z,0.82
2023-04-30T16:22:37.340Z,1.00
2023-04-30T16:25:07.657Z,1.02
2023-04-30T16:27:37.323Z,1.10
2023-04-30T16:30:06.707Z,0.98
2023-04-30T16:32:36.013Z,1.10
2023-04-30T16:35:03.945Z,1.10
2023-04-30T16:37:31.905Z,0.90
2023-04-30T16:40:01.457Z,1.13
2023-04-30T16:42:30.197Z,1.10
2023-04-30T16:44:58.184Z,1.20
2023-04-30T16:47:26.222Z,1.30
2023-04-30T16:49:56.295Z,1.27
2023-04-30T16:52:24.461Z,1.40
2023-04-30T16:54:52.634Z,1.15
2023-04-30T16:57:21.105Z,1.25
2023-04-30T16:59:48.969Z,1.30
2023-04-30T17:02:16.966Z,1.20
2023-04-30T17:04:44.873Z,1.00
2023-04-30T17:07:14.134Z,1.50
2023-04-30T17:09:42.182Z,1.00
2023-04-30T17:12:10.109Z,1.20
2023-04-30T17:14:38.606Z,1.30
2023-04-30T17:17:06.515Z,1.30
2023-04-30T17:19:34.495Z,1.20
2023-04-30T17:22:02.755Z,1.33
2023-04-30T17:24:32.074Z,1.25
2023-04-30T17:27:01.046Z,1.30
2023-04-30T17:29:28.982Z,1.10
2023-04-30T17:31:57.204Z,1.10
2023-04-30T17:34:25.282Z,1.10
2023-04-30T17:36:53.183Z,1.27
2023-04-30T17:39:21.084Z,1.23
2023-04-30T17:41:50.480Z,1.40
2023-04-30T17:44:19.416Z,1.60
2023-04-30T17:46:47.426Z,1.65
2023-04-30T17:49:15.483Z,1.58
2023-04-30T17:51:43.361Z,1.50
2023-04-30T17:54:11.246Z,1.15
2023-04-30T17:56:39.201Z,1.15
2023-04-30T17:59:08.628Z,1.13
2023-04-30T18:01:37.395Z,1.40
2023-04-30T18:04:08.519Z,1.00
2023-04-30T18:06:36.793Z,1.40
2023-04-30T18:09:04.923Z,1.33
2023-04-30T18:11:33.755Z,1.52
2023-04-30T18:14:02.095Z,1.95
2023-04-30T18:16:32.414Z,1.25
2023-04-30T18:19:00.574Z,1.55
2023-04-30T18:21:29.670Z,1.83
2023-04-30T18:23:57.517Z,1.50
2023-04-30T18:26:25.825Z,1.65
2023-04-30T18:28:53.924Z,1.50
2023-04-30T18:31:22.054Z,2.08
2023-04-30T18:33:51.331Z,1.65
2023-04-30T18:36:19.384Z,1.50
2023-04-30T18:38:47.293Z,1.30
2023-04-30T18:41:15.423Z,1.52
2023-04-30T18:43:43.563Z,1.48
2023-04-30T18:46:11.519Z,1.80
2023-04-30T18:48:39.457Z,1.70
2023-04-30T18:51:08.674Z,1.80
2023-04-30T18:53:36.729Z,2.03
2023-04-30T18:56:04.791Z,1.88
2023-04-30T18:58:32.813Z,1.70
2023-04-30T19:01:00.743Z,2.28
2023-04-30T19:03:30.393Z,2.17
2023-04-30T19:05:58.684Z,2.50
2023-04-30T19:08:28.073Z,2.20
2023-04-30T19:10:56.794Z,2.03
2023-04-30T19:13:24.932Z,2.35
2023-04-30T19:15:53.809Z,2.00
2023-04-30T19:18:24.546Z,2.20
2023-04-30T19:20:59.404Z,2.13
2023-04-30T19:23:30.696Z,2.65
2023-04-30T19:25:59.553Z,2.90
2023-04-30T19:28:27.569Z,2.72
2023-04-30T19:30:56.399Z,2.60
2023-04-30T19:33:25.819Z,3.05
2023-04-30T19:35:54.649Z,3.47
2023-04-30T19:38:22.823Z,2.90
2023-04-30T19:40:54.326Z,2.70
2023-04-30T19:43:23.363Z,2.90
2023-04-30T19:45:52.926Z,2.38
2023-04-30T19:48:21.677Z,2.72
2023-04-30T19:50:51.451Z,2.33
2023-04-30T19:53:19.361Z,2.17
2023-04-30T19:55:47.262Z,2.45
2023-04-30T19:58:16.623Z,2.95
2023-04-30T20:00:46.044Z,3.47
2023-04-30T20:03:15.289Z,3.10
2023-04-30T20:05:43.705Z,3.08
2023-04-30T20:08:11.790Z,3.38
2023-04-30T20:10:40.981Z,3.08
2023-04-30T20:13:10.536Z,2.55
2023-04-30T20:15:39.959Z,4.05
2023-04-30T20:18:07.973Z,3.13
2023-04-30T20:20:36.162Z,3.33
2023-04-30T20:23:13.989Z,3.70
2023-04-30T20:25:45.387Z,3.38
2023-04-30T20:28:13.968Z,3.42
2023-04-30T20:30:43.861Z,3.28
2023-04-30T20:33:11.923Z,3.67
2023-04-30T20:35:41.483Z,3.40
2023-04-30T20:38:20.110Z,3.30
2023-04-30T20:40:48.329Z,3.85
2023-04-30T20:43:17.454Z,3.85
2023-04-30T20:45:47.647Z,3.58
2023-04-30T20:48:17.187Z,3.60
2023-04-30T20:50:45.549Z,3.50
2023-04-30T20:53:15.134Z,3.63
2023-04-30T20:55:43.718Z,3.75
2023-04-30T20:58:11.917Z,3.63
2023-04-30T21:00:39.844Z,4.10
2023-04-30T21:03:09.557Z,3.55
2023-04-30T21:05:37.665Z,4.25
2023-04-30T21:08:05.897Z,4.43
2023-04-30T21:10:36.791Z,4.70
2023-04-30T21:13:06.211Z,4.38
2023-04-30T21:15:36.512Z,4.43
2023-04-30T21:18:04.682Z,4.60
2023-04-30T21:20:33.948Z,4.60
2023-04-30T21:23:03.526Z,4.65
2023-04-30T21:25:31.547Z,4.50
2023-04-30T21:27:59.461Z,4.50
2023-04-30T21:30:27.519Z,4.35
2023-04-30T21:32:58.696Z,4.68
2023-04-30T21:35:27.952Z,5.22
2023-04-30T21:37:57.278Z,4.93
2023-04-30T21:40:26.122Z,4.30
2023-04-30T21:42:54.775Z,5.23
2023-04-30T21:45:22.905Z,4.63
2023-04-30T21:47:51.081Z,4.83
2023-04-30T21:50:19.123Z,4.60
2023-04-30T21:52:47.040Z,4.67
2023-04-30T21:55:16.461Z,4.60
2023-04-30T21:57:46.521Z,4.80
2023-04-30T22:00:16.864Z,4.93
2023-04-30T22:02:51.541Z,4.27
2023-04-30T22:05:21.094Z,4.93
2023-04-30T22:07:49.503Z,4.70
2023-04-30T22:10:21.374Z,4.63
2023-04-30T22:12:49.625Z,4.73
2023-04-30T22:15:17.530Z,4.77
2023-04-30T22:17:46.145Z,4.70
2023-04-30T22:20:14.518Z,4.57
2023-04-30T22:22:43.041Z,4.60
2023-04-30T22:25:11.383Z,5.00
2023-04-30T22:27:40.829Z,5.10
2023-04-30T22:30:09.485Z,4.30
2023-04-30T22:32:38.100Z,5.67
2023-04-30T22:35:07.821Z,5.47
2023-04-30T22:37:38.611Z,5.13
2023-04-30T22:40:07.713Z,5.53
2023-04-30T22:42:36.005Z,5.30
2023-04-30T22:45:06.116Z,5.13
2023-04-30T22:47:35.222Z,4.80
2023-04-30T22:50:04.774Z,4.57
2023-04-30T22:52:33.211Z,4.57
2023-04-30T22:55:01.504Z,4.20
2023-04-30T22:57:29.542Z,4.47
2023-04-30T22:59:57.810Z,4.40
2023-04-30T23:02:28.719Z,3.93
2023-04-30T23:04:56.983Z,4.17
2023-04-30T23:07:25.065Z,4.57
2023-04-30T23:09:53.315Z,4.23
2023-04-30T23:12:22.511Z,4.23
2023-04-30T23:14:50.956Z,4.17
2023-04-30T23:17:19.020Z,3.77
2023-04-30T23:19:48.315Z,4.23
2023-04-30T23:22:16.672Z,4.37
2023-04-30T23:24:44.619Z,4.40
2023-04-30T23:27:12.628Z,4.17
2023-04-30T23:29:40.551Z,4.40
2023-04-30T23:32:08.421Z,4.63
2023-04-30T23:34:36.474Z,5.03
2023-04-30T23:37:05.743Z,4.63
2023-04-30T23:39:34.089Z,5.13
2023-04-30T23:42:02.502Z,5.00
2023-04-30T23:44:32.524Z,4.67
2023-04-30T23:47:01.406Z,4.40
2023-04-30T23:49:29.321Z,4.50
2023-04-30T23:51:57.277Z,4.33
2023-04-30T23:54:26.557Z,4.50
2023-04-30T23:56:54.512Z,4.97
2023-04-30T23:59:24.505Z,4.80
